sensor_id;sensor_type;location;lat;lon;timestamp;temperature;humidity
75688;HTU21D;64300;45.034;38.910;2022-12-05T00:01:30;0.18;67.49
75688;HTU21D;64300;45.034;38.910;2022-12-05T00:04:06;0.15;67.60
75688;HTU21D;64300;45.034;38.910;2022-12-05T00:07:07;0.15;67.62
75688;HTU21D;64300;45.034;38.910;2022-12-05T00:09:57;0.14;67.88
75688;HTU21D;64300;45.034;38.910;2022-12-05T00:12:23;0.18;67.65
75688;HTU21D;64300;45.034;38.910;2022-12-05T00:14:49;0.23;67.44
75688;HTU21D;64300;45.034;38.910;2022-12-05T00:17:15;0.28;67.29
75688;HTU21D;64300;45.034;38.910;2022-12-05T00:19:41;0.31;67.10
75688;HTU21D;64300;45.034;38.910;2022-12-05T00:22:07;0.27;67.15
75688;HTU21D;64300;45.034;38.910;2022-12-05T00:24:33;0.25;67.17
75688;HTU21D;64300;45.034;38.910;2022-12-05T00:26:59;0.23;67.23
75688;HTU21D;64300;45.034;38.910;2022-12-05T00:29:25;0.20;67.14
75688;HTU21D;64300;45.034;38.910;2022-12-05T00:31:51;0.24;67.12
75688;HTU21D;64300;45.034;38.910;2022-12-05T00:34:17;0.24;67.36
75688;HTU21D;64300;45.034;38.910;2022-12-05T00:36:43;0.27;67.22
75688;HTU21D;64300;45.034;38.910;2022-12-05T00:39:11;0.28;67.30
75688;HTU21D;64300;45.034;38.910;2022-12-05T00:41:39;0.34;67.10
75688;HTU21D;64300;45.034;38.910;2022-12-05T00:44:05;0.35;67.17
75688;HTU21D;64300;45.034;38.910;2022-12-05T00:46:32;0.37;67.09
75688;HTU21D;64300;45.034;38.910;2022-12-05T00:49:16;0.36;66.95
75688;HTU21D;64300;45.034;38.910;2022-12-05T00:51:42;0.39;66.95
75688;HTU21D;64300;45.034;38.910;2022-12-05T00:54:16;0.40;66.73
75688;HTU21D;64300;45.034;38.910;2022-12-05T00:56:45;0.31;66.91
75688;HTU21D;64300;45.034;38.910;2022-12-05T01:02:52;0.30;66.72
75688;HTU21D;64300;45.034;38.910;2022-12-05T01:05:19;0.28;66.96
75688;HTU21D;64300;45.034;38.910;2022-12-05T01:11:08;0.23;67.16
75688;HTU21D;64300;45.034;38.910;2022-12-05T01:13:34;0.18;67.49
75688;HTU21D;64300;45.034;38.910;2022-12-05T01:16:01;0.24;67.32
75688;HTU21D;64300;45.034;38.910;2022-12-05T01:18:29;0.24;67.30
75688;HTU21D;64300;45.034;38.910;2022-12-05T01:20:55;0.30;67.10
75688;HTU21D;64300;45.034;38.910;2022-12-05T01:23:21;0.27;67.12
75688;HTU21D;64300;45.034;38.910;2022-12-05T01:25:49;0.25;67.16
75688;HTU21D;64300;45.034;38.910;2022-12-05T01:28:16;0.24;67.10
75688;HTU21D;64300;45.034;38.910;2022-12-05T01:30:47;0.19;67.14
75688;HTU21D;64300;45.034;38.910;2022-12-05T01:33:14;0.15;67.17
75688;HTU21D;64300;45.034;38.910;2022-12-05T01:35:40;0.09;67.22
75688;HTU21D;64300;45.034;38.910;2022-12-05T01:38:07;-0.03;68.03
75688;HTU21D;64300;45.034;38.910;2022-12-05T01:40:33;0.03;67.46
75688;HTU21D;64300;45.034;38.910;2022-12-05T01:43:01;-0.02;67.90
75688;HTU21D;64300;45.034;38.910;2022-12-05T01:45:36;-0.07;68.04
75688;HTU21D;64300;45.034;38.910;2022-12-05T01:48:13;-0.09;67.96
75688;HTU21D;64300;45.034;38.910;2022-12-05T01:50:41;-0.07;67.82
75688;HTU21D;64300;45.034;38.910;2022-12-05T01:53:07;-0.05;67.88
75688;HTU21D;64300;45.034;38.910;2022-12-05T01:55:34;0.03;67.66
75688;HTU21D;64300;45.034;38.910;2022-12-05T01:58:05;0.07;67.52
75688;HTU21D;64300;45.034;38.910;2022-12-05T02:00:32;0.08;67.48
75688;HTU21D;64300;45.034;38.910;2022-12-05T02:03:03;0.13;67.40
75688;HTU21D;64300;45.034;38.910;2022-12-05T02:05:34;0.05;67.45
75688;HTU21D;64300;45.034;38.910;2022-12-05T02:08:04;0.09;67.34
75688;HTU21D;64300;45.034;38.910;2022-12-05T02:10:43;0.04;67.54
75688;HTU21D;64300;45.034;38.910;2022-12-05T02:15:58;0.13;67.40
75688;HTU21D;64300;45.034;38.910;2022-12-05T02:18:46;0.14;67.52
75688;HTU21D;64300;45.034;38.910;2022-12-05T02:32:37;0.04;67.57
75688;HTU21D;64300;45.034;38.910;2022-12-05T02:35:23;0.06;67.61
75688;HTU21D;64300;45.034;38.910;2022-12-05T02:38:15;0.07;67.61
75688;HTU21D;64300;45.034;38.910;2022-12-05T02:40:59;0.06;67.61
75688;HTU21D;64300;45.034;38.910;2022-12-05T02:43:39;-0.02;67.85
75688;HTU21D;64300;45.034;38.910;2022-12-05T02:46:16;-0.01;67.70
75688;HTU21D;64300;45.034;38.910;2022-12-05T02:48:45;-0.07;67.68
75688;HTU21D;64300;45.034;38.910;2022-12-05T02:51:17;-0.11;67.81
75688;HTU21D;64300;45.034;38.910;2022-12-05T02:53:45;-0.10;67.86
75688;HTU21D;64300;45.034;38.910;2022-12-05T02:56:13;-0.11;68.21
75688;HTU21D;64300;45.034;38.910;2022-12-05T02:58:58;-0.13;68.50
75688;HTU21D;64300;45.034;38.910;2022-12-05T03:01:27;-0.10;68.05
75688;HTU21D;64300;45.034;38.910;2022-12-05T03:03:55;-0.11;67.97
75688;HTU21D;64300;45.034;38.910;2022-12-05T03:09:40;-0.25;68.33
75688;HTU21D;64300;45.034;38.910;2022-12-05T03:12:21;-0.28;68.41
75688;HTU21D;64300;45.034;38.910;2022-12-05T03:15:20;-0.31;68.64
75688;HTU21D;64300;45.034;38.910;2022-12-05T03:20:28;-0.50;69.59
75688;HTU21D;64300;45.034;38.910;2022-12-05T03:23:10;-0.49;69.02
75688;HTU21D;64300;45.034;38.910;2022-12-05T03:31:42;-0.61;69.36
75688;HTU21D;64300;45.034;38.910;2022-12-05T03:34:18;-0.72;70.68
75688;HTU21D;64300;45.034;38.910;2022-12-05T03:36:50;-0.70;69.89
75688;HTU21D;64300;45.034;38.910;2022-12-05T03:39:30;-0.70;69.69
75688;HTU21D;64300;45.034;38.910;2022-12-05T03:42:12;-0.75;70.08
75688;HTU21D;64300;45.034;38.910;2022-12-05T03:47:21;-0.72;70.08
75688;HTU21D;64300;45.034;38.910;2022-12-05T03:49:53;-0.73;69.87
75688;HTU21D;64300;45.034;38.910;2022-12-05T03:52:34;-0.73;70.20
75688;HTU21D;64300;45.034;38.910;2022-12-05T03:55:04;-0.79;70.79
75688;HTU21D;64300;45.034;38.910;2022-12-05T03:57:36;-0.83;70.76
75688;HTU21D;64300;45.034;38.910;2022-12-05T04:00:07;-0.85;71.20
75688;HTU21D;64300;45.034;38.910;2022-12-05T04:07:45;-0.87;70.89
75688;HTU21D;64300;45.034;38.910;2022-12-05T04:10:16;-0.86;70.90
75688;HTU21D;64300;45.034;38.910;2022-12-05T04:12:45;-0.89;71.29
75688;HTU21D;64300;45.034;38.910;2022-12-05T04:15:16;-0.94;70.96
75688;HTU21D;64300;45.034;38.910;2022-12-05T04:17:58;-0.93;71.84
75688;HTU21D;64300;45.034;38.910;2022-12-05T04:20:30;-0.94;71.19
75688;HTU21D;64300;45.034;38.910;2022-12-05T04:23:15;-0.89;70.89
75688;HTU21D;64300;45.034;38.910;2022-12-05T04:26:10;-0.95;70.94
75688;HTU21D;64300;45.034;38.910;2022-12-05T04:31:26;-1.01;71.55
75688;HTU21D;64300;45.034;38.910;2022-12-05T04:34:04;-1.06;72.66
75688;HTU21D;64300;45.034;38.910;2022-12-05T04:36:34;-1.09;72.70
75688;HTU21D;64300;45.034;38.910;2022-12-05T04:39:09;-1.03;71.62
75688;HTU21D;64300;45.034;38.910;2022-12-05T04:41:42;-1.06;72.30
75688;HTU21D;64300;45.034;38.910;2022-12-05T04:44:15;-1.03;71.73
75688;HTU21D;64300;45.034;38.910;2022-12-05T04:46:43;-1.04;71.90
75688;HTU21D;64300;45.034;38.910;2022-12-05T04:49:16;-1.02;71.80
75688;HTU21D;64300;45.034;38.910;2022-12-05T04:51:44;-0.99;71.88
75688;HTU21D;64300;45.034;38.910;2022-12-05T04:54:19;-0.98;71.90
75688;HTU21D;64300;45.034;38.910;2022-12-05T04:56:50;-0.96;73.14
75688;HTU21D;64300;45.034;38.910;2022-12-05T04:59:17;-0.90;72.72
75688;HTU21D;64300;45.034;38.910;2022-12-05T05:01:53;-0.76;71.89
75688;HTU21D;64300;45.034;38.910;2022-12-05T05:04:28;-0.71;71.78
75688;HTU21D;64300;45.034;38.910;2022-12-05T05:06:55;-0.68;71.88
75688;HTU21D;64300;45.034;38.910;2022-12-05T05:09:21;-0.58;71.95
75688;HTU21D;64300;45.034;38.910;2022-12-05T05:11:47;-0.50;71.33
75688;HTU21D;64300;45.034;38.910;2022-12-05T05:14:13;-0.47;71.31
75688;HTU21D;64300;45.034;38.910;2022-12-05T05:16:40;-0.42;71.06
75688;HTU21D;64300;45.034;38.910;2022-12-05T05:19:07;-0.41;71.10
75688;HTU21D;64300;45.034;38.910;2022-12-05T05:21:37;-0.39;70.90
75688;HTU21D;64300;45.034;38.910;2022-12-05T05:24:04;-0.39;70.90
75688;HTU21D;64300;45.034;38.910;2022-12-05T05:26:34;-0.42;71.19
75688;HTU21D;64300;45.034;38.910;2022-12-05T05:29:00;-0.47;71.16
75688;HTU21D;64300;45.034;38.910;2022-12-05T05:31:26;-0.40;70.85
75688;HTU21D;64300;45.034;38.910;2022-12-05T05:33:55;-0.39;70.86
75688;HTU21D;64300;45.034;38.910;2022-12-05T05:36:26;-0.40;70.77
75688;HTU21D;64300;45.034;38.910;2022-12-05T05:38:54;-0.42;70.78
75688;HTU21D;64300;45.034;38.910;2022-12-05T05:41:23;-0.44;70.87
75688;HTU21D;64300;45.034;38.910;2022-12-05T05:43:50;-0.42;70.97
75688;HTU21D;64300;45.034;38.910;2022-12-05T05:46:19;-0.40;70.73
75688;HTU21D;64300;45.034;38.910;2022-12-05T05:48:46;-0.40;70.71
75688;HTU21D;64300;45.034;38.910;2022-12-05T05:51:14;-0.41;70.82
75688;HTU21D;64300;45.034;38.910;2022-12-05T05:53:40;-0.40;70.84
75688;HTU21D;64300;45.034;38.910;2022-12-05T05:56:08;-0.38;70.81
75688;HTU21D;64300;45.034;38.910;2022-12-05T05:58:35;-0.31;70.70
75688;HTU21D;64300;45.034;38.910;2022-12-05T06:01:06;-0.28;70.66
75688;HTU21D;64300;45.034;38.910;2022-12-05T06:03:32;-0.27;70.77
75688;HTU21D;64300;45.034;38.910;2022-12-05T06:06:00;-0.26;70.80
75688;HTU21D;64300;45.034;38.910;2022-12-05T06:08:32;-0.22;70.52
75688;HTU21D;64300;45.034;38.910;2022-12-05T06:10:58;-0.26;70.68
75688;HTU21D;64300;45.034;38.910;2022-12-05T06:13:24;-0.23;70.49
75688;HTU21D;64300;45.034;38.910;2022-12-05T06:15:51;-0.20;70.23
75688;HTU21D;64300;45.034;38.910;2022-12-05T06:18:16;-0.21;70.20
75688;HTU21D;64300;45.034;38.910;2022-12-05T06:20:53;-0.26;70.37
75688;HTU21D;64300;45.034;38.910;2022-12-05T06:23:20;-0.26;70.38
75688;HTU21D;64300;45.034;38.910;2022-12-05T06:25:47;-0.22;70.32
75688;HTU21D;64300;45.034;38.910;2022-12-05T06:28:16;-0.20;70.51
75688;HTU21D;64300;45.034;38.910;2022-12-05T06:30:41;-0.10;70.24
75688;HTU21D;64300;45.034;38.910;2022-12-05T06:33:08;-0.06;70.39
75688;HTU21D;64300;45.034;38.910;2022-12-05T06:35:34;-0.00;70.41
75688;HTU21D;64300;45.034;38.910;2022-12-05T06:38:00;0.05;70.35
75688;HTU21D;64300;45.034;38.910;2022-12-05T06:40:25;0.12;70.39
75688;HTU21D;64300;45.034;38.910;2022-12-05T06:42:54;0.22;70.31
75688;HTU21D;64300;45.034;38.910;2022-12-05T06:45:20;0.35;70.16
75688;HTU21D;64300;45.034;38.910;2022-12-05T06:47:46;0.48;69.68
75688;HTU21D;64300;45.034;38.910;2022-12-05T06:50:12;0.50;69.49
75688;HTU21D;64300;45.034;38.910;2022-12-05T06:52:38;0.53;69.36
75688;HTU21D;64300;45.034;38.910;2022-12-05T06:55:05;0.59;69.42
75688;HTU21D;64300;45.034;38.910;2022-12-05T06:57:31;0.65;69.28
75688;HTU21D;64300;45.034;38.910;2022-12-05T06:59:56;0.74;69.11
75688;HTU21D;64300;45.034;38.910;2022-12-05T07:02:41;0.81;69.05
75688;HTU21D;64300;45.034;38.910;2022-12-05T07:05:10;0.91;68.46
75688;HTU21D;64300;45.034;38.910;2022-12-05T07:07:36;0.98;68.42
75688;HTU21D;64300;45.034;38.910;2022-12-05T07:10:03;1.05;68.02
75688;HTU21D;64300;45.034;38.910;2022-12-05T07:12:32;1.09;67.55
75688;HTU21D;64300;45.034;38.910;2022-12-05T07:14:58;1.10;67.94
75688;HTU21D;64300;45.034;38.910;2022-12-05T07:17:24;1.20;67.34
75688;HTU21D;64300;45.034;38.910;2022-12-05T07:19:51;1.28;67.27
75688;HTU21D;64300;45.034;38.910;2022-12-05T07:22:19;1.38;67.05
75688;HTU21D;64300;45.034;38.910;2022-12-05T07:24:46;1.47;66.94
75688;HTU21D;64300;45.034;38.910;2022-12-05T07:27:13;1.53;66.97
75688;HTU21D;64300;45.034;38.910;2022-12-05T07:29:40;1.53;66.64
75688;HTU21D;64300;45.034;38.910;2022-12-05T07:32:06;1.57;65.95
75688;HTU21D;64300;45.034;38.910;2022-12-05T07:34:32;1.54;66.45
75688;HTU21D;64300;45.034;38.910;2022-12-05T07:36:59;1.52;66.29
75688;HTU21D;64300;45.034;38.910;2022-12-05T07:39:25;1.53;66.40
75688;HTU21D;64300;45.034;38.910;2022-12-05T07:41:51;1.60;66.30
75688;HTU21D;64300;45.034;38.910;2022-12-05T07:44:17;1.65;65.87
75688;HTU21D;64300;45.034;38.910;2022-12-05T07:46:43;1.65;65.80
75688;HTU21D;64300;45.034;38.910;2022-12-05T07:49:10;1.72;65.71
75688;HTU21D;64300;45.034;38.910;2022-12-05T07:51:38;1.79;65.82
75688;HTU21D;64300;45.034;38.910;2022-12-05T07:54:04;1.90;65.46
75688;HTU21D;64300;45.034;38.910;2022-12-05T07:56:31;1.86;63.66
75688;HTU21D;64300;45.034;38.910;2022-12-05T07:58:57;1.98;64.99
75688;HTU21D;64300;45.034;38.910;2022-12-05T08:01:25;2.11;65.13
75688;HTU21D;64300;45.034;38.910;2022-12-05T08:03:52;2.22;64.92
75688;HTU21D;64300;45.034;38.910;2022-12-05T08:06:23;2.29;64.00
75688;HTU21D;64300;45.034;38.910;2022-12-05T08:08:49;2.39;64.16
75688;HTU21D;64300;45.034;38.910;2022-12-05T08:11:24;2.45;63.76
75688;HTU21D;64300;45.034;38.910;2022-12-05T08:13:51;2.52;63.98
75688;HTU21D;64300;45.034;38.910;2022-12-05T08:16:21;2.60;63.47
75688;HTU21D;64300;45.034;38.910;2022-12-05T08:18:48;2.67;63.24
75688;HTU21D;64300;45.034;38.910;2022-12-05T08:21:16;2.78;62.86
75688;HTU21D;64300;45.034;38.910;2022-12-05T08:23:44;2.68;62.15
75688;HTU21D;64300;45.034;38.910;2022-12-05T08:26:13;2.57;61.01
75688;HTU21D;64300;45.034;38.910;2022-12-05T08:28:39;2.73;62.79
75688;HTU21D;64300;45.034;38.910;2022-12-05T08:31:15;2.78;62.36
75688;HTU21D;64300;45.034;38.910;2022-12-05T08:33:42;2.75;62.47
75688;HTU21D;64300;45.034;38.910;2022-12-05T08:36:13;2.71;60.90
75688;HTU21D;64300;45.034;38.910;2022-12-05T08:38:40;2.76;62.54
75688;HTU21D;64300;45.034;38.910;2022-12-05T08:41:28;2.85;62.19
75688;HTU21D;64300;45.034;38.910;2022-12-05T08:43:55;2.90;61.89
75688;HTU21D;64300;45.034;38.910;2022-12-05T08:46:22;2.84;61.94
75688;HTU21D;64300;45.034;38.910;2022-12-05T08:48:47;2.82;61.87
75688;HTU21D;64300;45.034;38.910;2022-12-05T08:51:14;2.64;60.24
75688;HTU21D;64300;45.034;38.910;2022-12-05T08:53:40;2.72;62.16
75688;HTU21D;64300;45.034;38.910;2022-12-05T08:56:06;2.84;61.87
75688;HTU21D;64300;45.034;38.910;2022-12-05T08:58:33;2.66;61.83
75688;HTU21D;64300;45.034;38.910;2022-12-05T09:01:11;2.75;61.77
75688;HTU21D;64300;45.034;38.910;2022-12-05T09:03:38;2.76;62.04
75688;HTU21D;64300;45.034;38.910;2022-12-05T09:08:35;2.68;62.10
75688;HTU21D;64300;45.034;38.910;2022-12-05T09:11:07;2.61;62.31
75688;HTU21D;64300;45.034;38.910;2022-12-05T09:13:34;2.58;61.85
75688;HTU21D;64300;45.034;38.910;2022-12-05T09:16:11;2.59;62.19
75688;HTU21D;64300;45.034;38.910;2022-12-05T09:19:01;2.58;62.00
75688;HTU21D;64300;45.034;38.910;2022-12-05T09:25:12;2.45;62.33
75688;HTU21D;64300;45.034;38.910;2022-12-05T09:27:38;2.52;62.30
75688;HTU21D;64300;45.034;38.910;2022-12-05T09:30:06;2.49;62.53
75688;HTU21D;64300;45.034;38.910;2022-12-05T09:32:33;2.49;62.59
75688;HTU21D;64300;45.034;38.910;2022-12-05T09:34:59;2.51;62.42
75688;HTU21D;64300;45.034;38.910;2022-12-05T10:03:55;2.64;63.16
75688;HTU21D;64300;45.034;38.910;2022-12-05T10:06:33;2.70;63.05
75688;HTU21D;64300;45.034;38.910;2022-12-05T10:09:30;2.75;62.90
75688;HTU21D;64300;45.034;38.910;2022-12-05T10:15:25;2.87;62.62
75688;HTU21D;64300;45.034;38.910;2022-12-05T10:18:01;2.94;61.94
75688;HTU21D;64300;45.034;38.910;2022-12-05T10:23:43;3.13;62.06
75688;HTU21D;64300;45.034;38.910;2022-12-05T10:26:12;3.19;62.16
75688;HTU21D;64300;45.034;38.910;2022-12-05T10:31:33;3.24;62.03
75688;HTU21D;64300;45.034;38.910;2022-12-05T10:34:39;3.35;62.35
75688;HTU21D;64300;45.034;38.910;2022-12-05T10:37:18;3.41;62.18
75688;HTU21D;64300;45.034;38.910;2022-12-05T10:39:46;3.43;61.60
75688;HTU21D;64300;45.034;38.910;2022-12-05T10:42:36;3.45;60.88
75688;HTU21D;64300;45.034;38.910;2022-12-05T10:45:04;3.41;60.22
75688;HTU21D;64300;45.034;38.910;2022-12-05T10:47:31;3.50;61.07
75688;HTU21D;64300;45.034;38.910;2022-12-05T10:50:03;3.55;60.79
75688;HTU21D;64300;45.034;38.910;2022-12-05T10:52:30;3.57;61.12
75688;HTU21D;64300;45.034;38.910;2022-12-05T10:55:01;3.64;60.51
75688;HTU21D;64300;45.034;38.910;2022-12-05T10:57:28;3.69;60.44
75688;HTU21D;64300;45.034;38.910;2022-12-05T10:59:55;3.70;60.78
75688;HTU21D;64300;45.034;38.910;2022-12-05T11:02:31;3.76;60.44
75688;HTU21D;64300;45.034;38.910;2022-12-05T11:04:58;3.78;60.64
75688;HTU21D;64300;45.034;38.910;2022-12-05T11:07:34;3.83;59.96
75688;HTU21D;64300;45.034;38.910;2022-12-05T11:10:03;3.84;60.59
75688;HTU21D;64300;45.034;38.910;2022-12-05T11:12:37;3.86;60.53
75688;HTU21D;64300;45.034;38.910;2022-12-05T11:17:37;3.93;59.27
75688;HTU21D;64300;45.034;38.910;2022-12-05T11:22:54;3.99;59.91
75688;HTU21D;64300;45.034;38.910;2022-12-05T11:25:33;3.99;60.07
75688;HTU21D;64300;45.034;38.910;2022-12-05T11:28:00;4.02;59.86
75688;HTU21D;64300;45.034;38.910;2022-12-05T11:33:32;3.93;59.90
75688;HTU21D;64300;45.034;38.910;2022-12-05T11:36:09;3.93;59.76
75688;HTU21D;64300;45.034;38.910;2022-12-05T11:38:38;3.95;59.70
75688;HTU21D;64300;45.034;38.910;2022-12-05T11:41:14;3.95;59.65
75688;HTU21D;64300;45.034;38.910;2022-12-05T11:54:41;3.98;58.61
75688;HTU21D;64300;45.034;38.910;2022-12-05T12:00:28;3.91;58.65
75688;HTU21D;64300;45.034;38.910;2022-12-05T12:03:17;3.91;58.47
75688;HTU21D;64300;45.034;38.910;2022-12-05T12:06:05;3.91;58.98
75688;HTU21D;64300;45.034;38.910;2022-12-05T12:12:03;3.88;58.83
75688;HTU21D;64300;45.034;38.910;2022-12-05T12:14:40;3.86;58.55
75688;HTU21D;64300;45.034;38.910;2022-12-05T12:22:54;3.79;58.67
75688;HTU21D;64300;45.034;38.910;2022-12-05T12:28:24;3.76;58.27
75688;HTU21D;64300;45.034;38.910;2022-12-05T12:52:22;3.46;58.41
75688;HTU21D;64300;45.034;38.910;2022-12-05T12:55:23;3.45;58.04
75688;HTU21D;64300;45.034;38.910;2022-12-05T13:03:46;3.36;58.41
75688;HTU21D;64300;45.034;38.910;2022-12-05T13:06:31;3.31;58.68
75688;HTU21D;64300;45.034;38.910;2022-12-05T13:09:04;3.25;58.58
75688;HTU21D;64300;45.034;38.910;2022-12-05T13:11:35;3.21;58.41
75688;HTU21D;64300;45.034;38.910;2022-12-05T13:14:03;3.21;58.48
75688;HTU21D;64300;45.034;38.910;2022-12-05T13:16:38;3.19;58.24
75688;HTU21D;64300;45.034;38.910;2022-12-05T14:49:57;1.53;62.39
75688;HTU21D;64300;45.034;38.910;2022-12-05T14:55:49;1.46;62.63
75688;HTU21D;64300;45.034;38.910;2022-12-05T15:01:21;1.46;62.60
75688;HTU21D;64300;45.034;38.910;2022-12-05T15:06:20;1.43;62.61
75688;HTU21D;64300;45.034;38.910;2022-12-05T15:08:54;1.46;62.47
75688;HTU21D;64300;45.034;38.910;2022-12-05T15:11:30;1.37;62.75
75688;HTU21D;64300;45.034;38.910;2022-12-05T15:17:27;1.36;62.88
75688;HTU21D;64300;45.034;38.910;2022-12-05T15:20:13;1.33;62.93
75688;HTU21D;64300;45.034;38.910;2022-12-05T15:22:43;1.24;63.45
75688;HTU21D;64300;45.034;38.910;2022-12-05T15:25:27;1.25;63.16
75688;HTU21D;64300;45.034;38.910;2022-12-05T15:27:57;1.21;63.34
75688;HTU21D;64300;45.034;38.910;2022-12-05T15:30:24;1.17;63.61
75688;HTU21D;64300;45.034;38.910;2022-12-05T15:32:51;1.16;63.49
75688;HTU21D;64300;45.034;38.910;2022-12-05T15:35:17;1.14;63.56
75688;HTU21D;64300;45.034;38.910;2022-12-05T15:40:20;0.98;64.30
75688;HTU21D;64300;45.034;38.910;2022-12-05T15:42:49;0.99;63.95
75688;HTU21D;64300;45.034;38.910;2022-12-05T15:45:29;0.95;64.09
75688;HTU21D;64300;45.034;38.910;2022-12-05T15:48:10;0.92;64.07
75688;HTU21D;64300;45.034;38.910;2022-12-05T15:50:42;0.89;64.27
75688;HTU21D;64300;45.034;38.910;2022-12-05T15:56:29;0.79;64.70
75688;HTU21D;64300;45.034;38.910;2022-12-05T15:58:40;0.76;64.95
75688;HTU21D;64300;45.034;38.910;2022-12-05T16:09:27;0.69;65.43
75688;HTU21D;64300;45.034;38.910;2022-12-05T16:12:04;0.69;65.49
75688;HTU21D;64300;45.034;38.910;2022-12-05T16:14:34;0.66;65.35
75688;HTU21D;64300;45.034;38.910;2022-12-05T16:17:02;0.62;65.35
75688;HTU21D;64300;45.034;38.910;2022-12-05T16:19:29;0.61;65.45
75688;HTU21D;64300;45.034;38.910;2022-12-05T16:24:41;0.52;65.86
75688;HTU21D;64300;45.034;38.910;2022-12-05T16:27:16;0.48;65.87
75688;HTU21D;64300;45.034;38.910;2022-12-05T16:29:43;0.36;67.34
75688;HTU21D;64300;45.034;38.910;2022-12-05T16:32:22;0.45;66.49
75688;HTU21D;64300;45.034;38.910;2022-12-05T16:34:48;0.40;66.33
75688;HTU21D;64300;45.034;38.910;2022-12-05T16:37:31;0.28;67.60
75688;HTU21D;64300;45.034;38.910;2022-12-05T16:39:57;0.24;67.27
75688;HTU21D;64300;45.034;38.910;2022-12-05T16:42:29;0.20;66.63
75688;HTU21D;64300;45.034;38.910;2022-12-05T16:45:00;0.21;67.15
75688;HTU21D;64300;45.034;38.910;2022-12-05T16:50:33;0.16;67.78
75688;HTU21D;64300;45.034;38.910;2022-12-05T16:53:27;0.12;67.75
75688;HTU21D;64300;45.034;38.910;2022-12-05T16:56:29;0.13;67.72
75688;HTU21D;64300;45.034;38.910;2022-12-05T16:59:12;0.07;67.66
75688;HTU21D;64300;45.034;38.910;2022-12-05T17:01:40;-0.02;68.31
75688;HTU21D;64300;45.034;38.910;2022-12-05T17:04:09;-0.02;68.13
75688;HTU21D;64300;45.034;38.910;2022-12-05T17:06:35;-0.03;67.89
75688;HTU21D;64300;45.034;38.910;2022-12-05T17:09:01;-0.07;69.23
75688;HTU21D;64300;45.034;38.910;2022-12-05T17:11:32;-0.02;68.80
75688;HTU21D;64300;45.034;38.910;2022-12-05T17:14:00;-0.06;69.83
75688;HTU21D;64300;45.034;38.910;2022-12-05T17:16:26;-0.02;68.65
75688;HTU21D;64300;45.034;38.910;2022-12-05T17:18:52;-0.02;69.33
75688;HTU21D;64300;45.034;38.910;2022-12-05T17:21:25;0.01;68.76
75688;HTU21D;64300;45.034;38.910;2022-12-05T17:23:53;-0.06;70.43
75688;HTU21D;64300;45.034;38.910;2022-12-05T17:26:20;-0.02;68.71
75688;HTU21D;64300;45.034;38.910;2022-12-05T17:28:48;-0.00;68.71
75688;HTU21D;64300;45.034;38.910;2022-12-05T17:31:20;-0.08;69.70
75688;HTU21D;64300;45.034;38.910;2022-12-05T17:33:47;-0.03;69.23
75688;HTU21D;64300;45.034;38.910;2022-12-05T17:36:14;-0.01;69.13
75688;HTU21D;64300;45.034;38.910;2022-12-05T17:38:40;-0.06;69.68
75688;HTU21D;64300;45.034;38.910;2022-12-05T17:41:06;-0.02;69.84
75688;HTU21D;64300;45.034;38.910;2022-12-05T17:43:41;-0.09;69.94
75688;HTU21D;64300;45.034;38.910;2022-12-05T17:46:23;-0.10;69.95
75688;HTU21D;64300;45.034;38.910;2022-12-05T17:51:44;-0.11;70.12
75688;HTU21D;64300;45.034;38.910;2022-12-05T17:54:10;-0.08;70.19
75688;HTU21D;64300;45.034;38.910;2022-12-05T17:56:36;-0.08;70.53
75688;HTU21D;64300;45.034;38.910;2022-12-05T17:59:05;-0.03;70.13
75688;HTU21D;64300;45.034;38.910;2022-12-05T18:01:31;-0.06;70.32
75688;HTU21D;64300;45.034;38.910;2022-12-05T18:04:00;-0.12;72.17
75688;HTU21D;64300;45.034;38.910;2022-12-05T18:06:26;-0.09;71.10
75688;HTU21D;64300;45.034;38.910;2022-12-05T18:08:53;-0.05;70.50
75688;HTU21D;64300;45.034;38.910;2022-12-05T18:11:19;-0.00;70.32
75688;HTU21D;64300;45.034;38.910;2022-12-05T18:13:45;0.03;70.36
75688;HTU21D;64300;45.034;38.910;2022-12-05T18:16:16;-0.00;70.64
75688;HTU21D;64300;45.034;38.910;2022-12-05T18:19:13;-0.02;71.12
75688;HTU21D;64300;45.034;38.910;2022-12-05T18:21:39;-0.00;70.90
75688;HTU21D;64300;45.034;38.910;2022-12-05T18:24:05;0.02;70.57
75688;HTU21D;64300;45.034;38.910;2022-12-05T18:26:31;0.01;70.48
75688;HTU21D;64300;45.034;38.910;2022-12-05T18:29:01;-0.00;70.46
75688;HTU21D;64300;45.034;38.910;2022-12-05T18:31:27;-0.02;70.87
75688;HTU21D;64300;45.034;38.910;2022-12-05T18:34:23;-0.00;70.99
75688;HTU21D;64300;45.034;38.910;2022-12-05T18:36:57;0.02;70.97
75688;HTU21D;64300;45.034;38.910;2022-12-05T18:39:43;0.05;70.95
75688;HTU21D;64300;45.034;38.910;2022-12-05T18:42:15;0.02;71.06
75688;HTU21D;64300;45.034;38.910;2022-12-05T18:44:41;0.03;70.91
75688;HTU21D;64300;45.034;38.910;2022-12-05T18:47:07;0.02;71.49
75688;HTU21D;64300;45.034;38.910;2022-12-05T18:49:42;0.03;71.82
75688;HTU21D;64300;45.034;38.910;2022-12-05T18:52:11;0.05;71.42
75688;HTU21D;64300;45.034;38.910;2022-12-05T18:54:37;0.04;71.35
75688;HTU21D;64300;45.034;38.910;2022-12-05T18:57:09;0.06;72.41
75688;HTU21D;64300;45.034;38.910;2022-12-05T18:59:40;0.07;71.70
75688;HTU21D;64300;45.034;38.910;2022-12-05T19:02:08;0.09;71.13
75688;HTU21D;64300;45.034;38.910;2022-12-05T19:04:34;0.10;71.26
75688;HTU21D;64300;45.034;38.910;2022-12-05T19:07:00;0.07;72.12
75688;HTU21D;64300;45.034;38.910;2022-12-05T19:09:29;0.08;72.14
75688;HTU21D;64300;45.034;38.910;2022-12-05T19:11:58;0.12;71.84
75688;HTU21D;64300;45.034;38.910;2022-12-05T19:14:25;0.10;71.30
75688;HTU21D;64300;45.034;38.910;2022-12-05T19:16:53;0.14;71.53
75688;HTU21D;64300;45.034;38.910;2022-12-05T19:19:20;0.09;71.65
75688;HTU21D;64300;45.034;38.910;2022-12-05T19:21:46;0.12;71.13
75688;HTU21D;64300;45.034;38.910;2022-12-05T19:24:17;0.09;71.26
75688;HTU21D;64300;45.034;38.910;2022-12-05T19:26:43;0.08;71.45
75688;HTU21D;64300;45.034;38.910;2022-12-05T19:29:11;0.01;73.09
75688;HTU21D;64300;45.034;38.910;2022-12-05T19:31:37;0.04;72.45
75688;HTU21D;64300;45.034;38.910;2022-12-05T19:34:04;-0.01;72.68
75688;HTU21D;64300;45.034;38.910;2022-12-05T19:36:36;-0.07;72.00
75688;HTU21D;64300;45.034;38.910;2022-12-05T19:39:12;-0.13;72.54
75688;HTU21D;64300;45.034;38.910;2022-12-05T19:41:38;-0.10;71.44
75688;HTU21D;64300;45.034;38.910;2022-12-05T19:44:05;-0.14;71.45
75688;HTU21D;64300;45.034;38.910;2022-12-05T19:46:32;-0.15;71.42
75688;HTU21D;64300;45.034;38.910;2022-12-05T19:49:01;-0.17;71.25
75688;HTU21D;64300;45.034;38.910;2022-12-05T19:51:28;-0.23;71.26
75688;HTU21D;64300;45.034;38.910;2022-12-05T19:53:54;-0.31;71.90
75688;HTU21D;64300;45.034;38.910;2022-12-05T19:56:22;-0.26;71.13
75688;HTU21D;64300;45.034;38.910;2022-12-05T19:58:50;-0.30;71.21
75688;HTU21D;64300;45.034;38.910;2022-12-05T20:01:22;-0.32;71.19
75688;HTU21D;64300;45.034;38.910;2022-12-05T20:03:50;-0.32;71.03
75688;HTU21D;64300;45.034;38.910;2022-12-05T20:06:20;-0.39;72.16